createdAt,value
2023-07-11T00:00:48.845Z,98646.50
2023-07-11T00:03:34.231Z,98648.13
2023-07-11T00:06:20.847Z,98644.63
2023-07-11T00:09:06.726Z,98630.72
2023-07-11T00:11:52.343Z,98646.72
2023-07-11T00:14:37.502Z,98641.13
2023-07-11T00:17:23.016Z,98644.06
2023-07-11T00:20:09.124Z,98647.16
2023-07-11T00:22:54.404Z,98642.63
2023-07-11T00:25:39.523Z,98643.44
2023-07-11T00:28:25.078Z,98636.50
2023-07-11T00:31:10.271Z,98645.53
2023-07-11T00:33:56.246Z,98647.16
2023-07-11T00:36:41.509Z,98644.34
2023-07-11T00:39:31.959Z,98639.09
2023-07-11T00:42:17.448Z,98632.81
2023-07-11T00:45:04.172Z,98629.53
2023-07-11T00:47:49.444Z,98623.63
2023-07-11T00:50:34.702Z,98627.03
2023-07-11T00:53:20.243Z,98623.28
2023-07-11T00:56:09.036Z,98618.81
2023-07-11T00:58:55.043Z,98618.28
2023-07-11T01:01:44.096Z,98626.84
2023-07-11T01:04:30.546Z,98620.00
2023-07-11T01:07:19.639Z,98607.69
2023-07-11T01:10:06.053Z,98572.31
2023-07-11T01:12:58.740Z,98619.28
2023-07-11T01:15:44.055Z,98620.31
2023-07-11T01:18:29.382Z,98627.41
2023-07-11T01:21:19.559Z,98622.06
2023-07-11T01:24:05.558Z,98626.50
2023-07-11T01:26:51.026Z,98622.97
2023-07-11T01:29:37.201Z,98612.88
2023-07-11T01:32:22.573Z,98613.94
2023-07-11T01:35:08.688Z,98606.81
2023-07-11T01:37:54.610Z,98587.72
2023-07-11T01:40:39.792Z,98599.94
2023-07-11T01:43:25.090Z,98606.81
2023-07-11T01:46:10.454Z,98605.66
2023-07-11T01:48:56.197Z,98600.78
2023-07-11T01:51:45.727Z,98599.16
2023-07-11T01:54:31.479Z,98602.63
2023-07-11T01:57:17.782Z,98598.31
2023-07-11T02:00:03.350Z,98601.59
2023-07-11T02:02:48.844Z,98604.25
2023-07-11T02:05:34.037Z,98596.09
2023-07-11T02:08:19.516Z,98592.69
2023-07-11T02:11:05.003Z,98595.34
2023-07-11T02:13:50.414Z,98589.19
2023-07-11T02:16:35.479Z,98592.69
2023-07-11T02:19:23.262Z,98593.50
2023-07-11T02:22:09.299Z,98595.06
2023-07-11T02:24:54.802Z,98591.00
2023-07-11T02:27:40.040Z,98581.00
2023-07-11T02:30:25.344Z,98585.25
2023-07-11T02:33:10.781Z,98587.84
2023-07-11T02:35:56.038Z,98590.88
2023-07-11T02:38:41.394Z,98594.38
2023-07-11T02:41:27.449Z,98586.97
2023-07-11T02:44:12.655Z,98578.53
2023-07-11T02:46:58.054Z,98587.59
2023-07-11T02:49:43.364Z,98578.78
2023-07-11T02:52:29.057Z,98578.97
2023-07-11T02:55:14.554Z,98570.91
2023-07-11T02:58:00.427Z,98527.34
2023-07-11T03:00:50.259Z,98571.94
2023-07-11T03:03:35.714Z,98574.41
2023-07-11T03:06:21.131Z,98574.63
2023-07-11T03:09:06.552Z,98576.66
2023-07-11T03:11:52.398Z,98573.06
2023-07-11T03:14:37.610Z,98569.09
2023-07-11T03:17:23.149Z,98568.66
2023-07-11T03:20:09.236Z,98568.66
2023-07-11T03:22:54.450Z,98566.81
2023-07-11T03:25:39.934Z,98561.44
2023-07-11T03:28:25.246Z,98559.59
2023-07-11T03:31:10.885Z,98559.59
2023-07-11T03:33:55.966Z,98553.44
2023-07-11T03:36:41.323Z,98547.88
2023-07-11T03:39:26.789Z,98550.53
2023-07-11T03:42:12.340Z,98543.97
2023-07-11T03:44:57.376Z,98548.16
2023-07-11T03:47:42.858Z,98505.56
2023-07-11T03:50:28.077Z,98508.31
2023-07-11T03:53:13.813Z,98517.66
2023-07-11T03:55:59.260Z,98544.50
2023-07-11T03:58:44.418Z,98538.06
2023-07-11T04:01:29.811Z,98500.13
2023-07-11T04:04:15.132Z,98543.44
2023-07-11T04:07:00.671Z,98538.25
2023-07-11T04:09:46.354Z,98531.13
2023-07-11T04:12:32.071Z,98540.78
2023-07-11T04:15:18.050Z,98532.34
2023-07-11T04:18:03.889Z,98534.13
2023-07-11T04:20:48.987Z,98534.91
2023-07-11T04:23:34.420Z,98532.41
2023-07-11T04:26:19.660Z,98527.94
2023-07-11T04:29:04.908Z,98510.25
2023-07-11T04:31:50.311Z,98528.44
2023-07-11T04:34:35.491Z,98519.97
2023-07-11T04:37:21.368Z,98530.69
2023-07-11T04:40:07.318Z,98513.72
2023-07-11T04:42:52.891Z,98533.31
2023-07-11T04:45:38.149Z,98521.53
2023-07-11T04:48:23.586Z,98520.13
2023-07-11T04:51:09.714Z,98530.13
2023-07-11T04:53:55.411Z,98524.41
2023-07-11T04:56:42.261Z,98518.63
2023-07-11T04:59:27.818Z,98455.56
2023-07-11T05:02:13.333Z,98497.28
2023-07-11T05:04:58.959Z,98517.34
2023-07-11T05:07:44.143Z,98515.97
2023-07-11T05:10:29.553Z,98517.69
2023-07-11T05:13:15.148Z,98514.78
2023-07-11T05:16:08.968Z,98511.38
2023-07-11T05:18:57.279Z,98508.78
2023-07-11T05:21:42.488Z,98503.53
2023-07-11T05:24:28.060Z,98504.34
2023-07-11T05:27:13.233Z,98493.88
2023-07-11T05:29:58.523Z,98496.22
2023-07-11T05:32:43.837Z,98486.66
2023-07-11T05:35:29.018Z,98474.16
2023-07-11T05:38:20.900Z,98485.69
2023-07-11T05:41:06.532Z,98487.56
2023-07-11T05:43:51.916Z,98489.25
2023-07-11T05:46:37.203Z,98477.94
2023-07-11T05:49:22.550Z,98472.22
2023-07-11T05:52:08.193Z,98476.22
2023-07-11T05:54:53.660Z,98466.22
2023-07-11T05:57:38.866Z,98473.69
2023-07-11T06:00:24.361Z,98468.34
2023-07-11T06:03:09.846Z,98469.38
2023-07-11T06:05:59.604Z,98437.63
2023-07-11T06:08:45.653Z,98460.75
2023-07-11T06:11:31.220Z,98454.84
2023-07-11T06:14:18.048Z,98456.66
2023-07-11T06:17:04.423Z,98453.69
2023-07-11T06:19:49.873Z,98446.84
2023-07-11T06:22:35.519Z,98440.22
2023-07-11T06:25:20.950Z,98367.25
2023-07-11T06:28:06.275Z,98432.31
2023-07-11T06:30:52.096Z,98429.69
2023-07-11T06:33:37.535Z,98427.28
2023-07-11T06:36:22.981Z,98438.66
2023-07-11T06:39:08.251Z,98401.50
2023-07-11T06:41:53.402Z,98430.91
2023-07-11T06:44:44.433Z,98413.69
2023-07-11T06:47:30.989Z,98434.44
2023-07-11T06:50:16.453Z,98431.47
2023-07-11T06:53:02.661Z,98427.16
2023-07-11T06:55:49.877Z,98415.53
2023-07-11T06:58:35.205Z,98415.75
2023-07-11T07:04:12.703Z,98413.50
2023-07-11T07:06:58.477Z,98404.84
2023-07-11T07:09:43.855Z,98410.84
2023-07-11T07:12:29.549Z,98402.34
2023-07-11T07:15:16.153Z,98404.25
2023-07-11T07:18:01.391Z,98402.94
2023-07-11T07:20:57.117Z,98400.31
2023-07-11T07:23:53.388Z,98394.34
2023-07-11T07:26:38.782Z,98393.56
2023-07-11T07:29:25.207Z,98398.78
2023-07-11T07:32:10.426Z,98366.09
2023-07-11T07:34:55.948Z,98380.38
2023-07-11T07:37:41.400Z,98362.91
2023-07-11T07:40:26.592Z,98378.28
2023-07-11T07:43:11.984Z,98373.34
2023-07-11T07:45:59.679Z,98360.78
2023-07-11T07:48:45.023Z,98358.50
2023-07-11T07:51:30.468Z,98360.94
2023-07-11T07:54:15.950Z,98356.22
2023-07-11T07:57:01.699Z,98340.09
2023-07-11T07:59:47.034Z,98345.47
2023-07-11T08:02:33.201Z,98335.63
2023-07-11T08:05:18.491Z,98342.25
2023-07-11T08:08:05.857Z,98337.78
2023-07-11T08:10:51.714Z,98340.63
2023-07-11T08:13:49.070Z,98317.72
2023-07-11T08:16:42.624Z,98323.59
2023-07-11T08:19:28.259Z,98322.22
2023-07-11T08:22:13.593Z,98317.31
2023-07-11T08:24:59.170Z,98313.97
2023-07-11T08:27:44.522Z,98310.25
2023-07-11T08:30:30.007Z,98307.94
2023-07-11T08:33:16.186Z,98298.88
2023-07-11T08:36:01.646Z,98299.69
2023-07-11T08:38:46.931Z,98290.38
2023-07-11T08:41:53.516Z,98290.56
2023-07-11T08:44:46.698Z,98289.94
2023-07-11T08:47:37.831Z,98286.75
2023-07-11T08:50:32.514Z,98279.88
2023-07-11T08:53:25.810Z,98280.84
2023-07-11T08:56:25.688Z,98269.31
2023-07-11T08:59:36.206Z,98272.19
2023-07-11T09:02:42.784Z,98264.28
2023-07-11T09:05:27.895Z,98262.63
2023-07-11T09:08:21.532Z,98253.41
2023-07-11T09:11:13.058Z,98249.31
2023-07-11T09:14:35.873Z,98247.00
2023-07-11T09:17:33.025Z,98243.09
2023-07-11T09:20:36.825Z,98232.53
2023-07-11T09:23:43.567Z,98240.59
2023-07-11T09:26:30.941Z,98240.38
2023-07-11T09:29:18.180Z,98243.75
2023-07-11T09:32:04.816Z,98182.84
2023-07-11T09:34:51.080Z,98223.25
2023-07-11T09:37:42.040Z,98222.25
2023-07-11T09:40:33.865Z,98216.13
2023-07-11T09:43:19.405Z,98213.66
2023-07-11T09:46:12.760Z,98214.53
2023-07-11T09:49:00.744Z,98205.16
2023-07-11T09:51:55.172Z,98206.41
2023-07-11T09:54:55.583Z,98197.47
2023-07-11T09:57:51.172Z,98200.31
2023-07-11T10:00:45.124Z,98193.50
2023-07-11T10:03:33.004Z,98188.09
2023-07-11T10:09:33.406Z,98182.44
2023-07-11T10:12:25.423Z,98175.47
2023-07-11T10:15:16.156Z,98120.47
2023-07-11T10:18:01.348Z,98162.13
2023-07-11T10:20:50.603Z,98164.31
2023-07-11T10:23:36.529Z,98152.22
2023-07-11T10:26:27.818Z,98147.56
2023-07-11T10:29:25.022Z,98153.84
2023-07-11T10:32:16.367Z,98150.09
2023-07-11T10:35:05.186Z,98121.53
2023-07-11T10:38:01.957Z,98136.59
2023-07-11T10:40:50.657Z,98136.81
2023-07-11T10:43:39.071Z,98128.38
2023-07-11T10:46:27.388Z,98127.66
2023-07-11T10:49:18.572Z,98127.47
2023-07-11T10:52:14.519Z,98120.59
2023-07-11T10:55:21.170Z,98109.53
2023-07-11T10:58:06.559Z,98113.56
2023-07-11T11:01:15.461Z,98104.41
2023-07-11T11:04:22.180Z,98104.31
2023-07-11T11:07:32.562Z,98099.72
2023-07-11T11:10:42.670Z,98082.09
2023-07-11T11:13:55.850Z,98090.00
2023-07-11T11:17:12.970Z,98087.75
2023-07-11T11:20:24.909Z,98072.06
2023-07-11T11:23:41.531Z,98075.97
2023-07-11T11:26:35.153Z,98065.25
2023-07-11T11:29:42.388Z,98073.16
2023-07-11T11:32:43.618Z,98069.19
2023-07-11T11:35:29.385Z,98064.31
2023-07-11T11:38:36.481Z,98049.63
2023-07-11T11:41:33.530Z,98057.06
2023-07-11T11:48:20.900Z,98017.53
2023-07-11T11:50:40.865Z,98045.28
2023-07-11T11:53:40.447Z,98052.34
2023-07-11T11:56:28.345Z,98042.66
2023-07-11T11:59:23.454Z,98031.06
2023-07-11T12:02:17.159Z,98037.09
2023-07-11T12:05:18.128Z,98030.28
2023-07-11T12:08:26.657Z,98021.00
2023-07-11T12:11:12.741Z,98018.84
2023-07-11T12:14:20.703Z,98019.44
2023-07-11T12:17:32.638Z,98006.69
2023-07-11T12:20:26.391Z,98005.56
2023-07-11T12:23:27.812Z,98002.97
2023-07-11T12:26:26.153Z,97989.50
2023-07-11T12:29:36.398Z,97989.25
2023-07-11T12:32:35.299Z,97977.16
2023-07-11T12:35:23.832Z,97981.06
2023-07-11T12:38:24.004Z,97986.88
2023-07-11T12:41:42.928Z,97982.56
2023-07-11T12:44:35.649Z,97956.75
2023-07-11T12:47:21.625Z,97984.59
2023-07-11T12:50:21.689Z,97964.75
2023-07-11T12:53:09.218Z,97971.63
2023-07-11T12:55:56.657Z,97970.03
2023-07-11T12:58:43.114Z,97959.94
2023-07-11T13:01:32.834Z,97958.50
2023-07-11T13:04:36.652Z,97973.44
2023-07-11T13:07:25.961Z,97972.31
2023-07-11T13:10:26.419Z,97960.28
2023-07-11T13:13:13.148Z,97904.84
2023-07-11T13:16:02.149Z,97947.06
2023-07-11T13:18:49.582Z,97952.19
2023-07-11T13:21:35.113Z,97952.19
2023-07-11T13:24:29.618Z,97911.22
2023-07-11T13:27:28.764Z,97941.06
2023-07-11T13:30:37.456Z,97942.28
2023-07-11T13:33:24.365Z,97940.22
2023-07-11T13:39:13.516Z,97925.75
2023-07-11T13:42:00.913Z,97929.31
2023-07-11T13:44:49.041Z,97920.81
2023-07-11T13:47:35.607Z,97866.59
2023-07-11T13:50:24.327Z,97912.91
2023-07-11T13:53:19.765Z,97911.81
2023-07-11T13:56:05.353Z,97900.25
2023-07-11T13:58:51.263Z,97902.59
2023-07-11T14:01:41.616Z,97900.63
2023-07-11T14:04:32.445Z,97898.03
2023-07-11T14:07:17.588Z,97892.81
2023-07-11T14:10:03.095Z,97890.03
2023-07-11T14:12:48.642Z,97883.91
2023-07-11T14:15:33.961Z,97882.34
2023-07-11T14:18:19.270Z,97873.53
2023-07-11T14:21:05.717Z,97862.13
2023-07-11T14:23:51.196Z,97878.00
2023-07-11T14:26:36.876Z,97871.06
2023-07-11T14:29:29.703Z,97867.53
2023-07-11T14:32:19.900Z,97866.81
2023-07-11T14:35:06.158Z,97864.59
2023-07-11T14:37:51.972Z,97861.59
2023-07-11T14:40:37.184Z,97856.75
2023-07-11T14:43:25.554Z,97850.75
2023-07-11T14:46:10.807Z,97844.47
2023-07-11T14:48:56.009Z,97842.38
2023-07-11T14:51:41.725Z,97845.47
2023-07-11T14:54:27.960Z,97839.59
2023-07-11T14:57:16.312Z,97840.91
2023-07-11T15:00:18.905Z,97838.81
2023-07-11T15:03:19.573Z,97844.53
2023-07-11T15:06:55.378Z,97840.47
2023-07-11T15:18:29.059Z,97834.03
2023-07-11T15:21:14.866Z,97835.28
2023-07-11T15:24:00.367Z,97806.69
2023-07-11T15:26:46.795Z,97826.44
2023-07-11T15:29:32.017Z,97805.16
2023-07-11T15:32:23.736Z,97804.06
2023-07-11T15:35:21.224Z,97796.44
2023-07-11T15:38:18.090Z,97796.78
2023-07-11T15:41:07.826Z,97791.19
2023-07-11T15:43:52.835Z,97773.31
2023-07-11T15:46:38.155Z,97792.28
2023-07-11T15:49:24.975Z,97749.41
2023-07-11T15:52:10.150Z,97786.94
2023-07-11T15:54:56.131Z,97782.31
2023-07-11T15:57:44.161Z,97754.13
2023-07-11T16:00:32.620Z,97776.66
2023-07-11T16:03:20.701Z,97767.69
2023-07-11T16:06:14.304Z,97776.81
2023-07-11T16:08:59.689Z,97768.19
2023-07-11T16:11:45.142Z,97763.44
2023-07-11T16:14:30.332Z,97772.91
2023-07-11T16:17:20.695Z,97771.84
2023-07-11T16:20:18.617Z,97766.13
2023-07-11T16:23:03.793Z,97763.09
2023-07-11T16:25:50.130Z,97763.31
2023-07-11T16:28:37.396Z,97761.53
2023-07-11T16:31:24.901Z,97753.47
2023-07-11T16:34:18.787Z,97686.22
2023-07-11T16:37:10.349Z,97752.28
2023-07-11T16:39:55.935Z,97749.56
2023-07-11T16:42:41.570Z,97751.56
2023-07-11T16:45:34.191Z,97734.91
2023-07-11T16:48:28.425Z,97732.09
2023-07-11T16:51:23.239Z,97740.31
2023-07-11T16:54:21.234Z,97730.88
2023-07-11T16:57:14.689Z,97698.59
2023-07-11T17:00:00.313Z,97734.09
2023-07-11T17:02:47.093Z,97726.81
2023-07-11T17:05:33.487Z,97728.63
2023-07-11T17:08:22.149Z,97731.59
2023-07-11T17:11:09.956Z,97680.28
2023-07-11T17:13:56.534Z,97722.81
2023-07-11T17:16:52.032Z,97733.78
2023-07-11T17:19:37.536Z,97732.06
2023-07-11T17:22:24.144Z,97733.13
2023-07-11T17:25:17.443Z,97734.19
2023-07-11T17:28:03.364Z,97718.03
2023-07-11T17:30:49.526Z,97705.78
2023-07-11T17:33:36.203Z,97655.84
2023-07-11T17:36:21.597Z,97719.38
2023-07-11T17:39:19.629Z,97722.28
2023-07-11T17:42:10.706Z,97721.03
2023-07-11T17:44:57.099Z,97711.06
2023-07-11T17:48:03.073Z,97699.53
2023-07-11T17:50:49.971Z,97708.69
2023-07-11T17:53:35.457Z,97696.25
2023-07-11T17:56:21.038Z,97703.44
2023-07-11T17:59:06.223Z,97682.28
2023-07-11T18:01:51.653Z,97687.41
2023-07-11T18:04:37.078Z,97688.09
2023-07-11T18:07:31.050Z,97691.53
2023-07-11T18:10:29.484Z,97629.28
2023-07-11T18:13:14.638Z,97677.97
2023-07-11T18:16:00.230Z,97671.78
2023-07-11T18:18:45.876Z,97675.06
2023-07-11T18:21:31.482Z,97664.09
2023-07-11T18:24:17.094Z,97659.72
2023-07-11T18:27:02.201Z,97655.25
2023-07-11T18:29:49.225Z,97644.38
2023-07-11T18:32:42.100Z,97635.47
2023-07-11T18:35:27.634Z,97654.38
2023-07-11T18:38:18.767Z,97642.50
2023-07-11T18:41:04.519Z,97641.78
2023-07-11T18:43:49.796Z,97638.97
2023-07-11T18:46:35.499Z,97636.25
2023-07-11T18:49:20.973Z,97637.63
2023-07-11T18:52:17.735Z,97637.41
2023-07-11T18:55:03.267Z,97626.16
2023-07-11T18:57:49.908Z,97623.47
2023-07-11T19:00:44.198Z,97621.72
2023-07-11T19:03:29.418Z,97616.38
2023-07-11T19:06:17.345Z,97618.84
2023-07-11T19:09:02.665Z,97611.88
2023-07-11T19:11:47.954Z,97599.59
2023-07-11T19:14:33.134Z,97587.00
2023-07-11T19:17:40.581Z,97592.41
2023-07-11T19:20:29.510Z,97590.38
2023-07-11T19:23:20.594Z,97591.34
2023-07-11T19:26:13.782Z,97586.00
2023-07-11T19:28:59.208Z,97593.50
2023-07-11T19:31:44.759Z,97592.41
2023-07-11T19:34:30.293Z,97588.22
2023-07-11T19:37:18.019Z,97588.69
2023-07-11T19:40:05.183Z,97581.94
2023-07-11T19:42:50.519Z,97566.03
2023-07-11T19:45:42.547Z,97586.16
2023-07-11T19:48:28.375Z,97581.00
2023-07-11T19:51:14.652Z,97594.56
2023-07-11T19:54:00.147Z,97596.28
2023-07-11T19:56:45.567Z,97598.16
2023-07-11T19:59:31.199Z,97598.34
2023-07-11T20:02:17.703Z,97532.41
2023-07-11T20:05:03.505Z,97591.78
2023-07-11T20:07:49.044Z,97594.78
2023-07-11T20:10:36.600Z,97583.56
2023-07-11T20:13:22.969Z,97516.66
2023-07-11T20:16:24.685Z,97569.97
2023-07-11T20:19:13.407Z,97559.13
2023-07-11T20:21:58.802Z,97551.09
2023-07-11T20:24:47.639Z,97532.97
2023-07-11T20:27:33.492Z,97503.22
2023-07-11T20:30:22.559Z,97497.03
2023-07-11T20:33:12.692Z,97498.06
2023-07-11T20:36:13.450Z,97491.47
2023-07-11T20:38:59.216Z,97481.22
2023-07-11T20:41:44.284Z,97465.16
2023-07-11T20:44:29.822Z,97484.25
2023-07-11T20:47:14.967Z,97476.53
2023-07-11T20:50:00.212Z,97481.16
2023-07-11T20:52:47.302Z,97443.28
2023-07-11T20:55:34.843Z,97488.94
2023-07-11T20:58:20.168Z,97492.75
2023-07-11T21:01:05.589Z,97494.09
2023-07-11T21:03:51.141Z,97504.38
2023-07-11T21:06:39.613Z,97500.00
2023-07-11T21:09:24.619Z,97507.41
2023-07-11T21:12:13.243Z,97508.47
2023-07-11T21:14:58.601Z,97510.25
2023-07-11T21:17:43.855Z,97516.56
2023-07-11T21:20:32.334Z,97512.38
2023-07-11T21:23:18.208Z,97526.38
2023-07-11T21:26:12.762Z,97526.00
2023-07-11T21:28:58.877Z,97534.63
2023-07-11T21:31:44.673Z,97524.19
2023-07-11T21:34:30.661Z,97528.88
2023-07-11T21:37:16.131Z,97509.59
2023-07-11T21:40:01.493Z,97520.25
2023-07-11T21:42:48.116Z,97519.03
2023-07-11T21:45:37.923Z,97525.91
2023-07-11T21:48:28.094Z,97521.16
2023-07-11T21:51:15.159Z,97530.06
2023-07-11T21:54:00.586Z,97529.94
2023-07-11T21:56:46.203Z,97529.16
2023-07-11T21:59:31.508Z,97526.50
2023-07-11T22:02:16.778Z,97526.50
2023-07-11T22:05:02.605Z,97548.59
2023-07-11T22:07:48.354Z,97550.22
2023-07-11T22:10:35.162Z,97552.69
2023-07-11T22:13:24.216Z,97554.53
2023-07-11T22:16:24.834Z,97553.94
2023-07-11T22:19:13.774Z,97555.66
2023-07-11T22:22:05.090Z,97543.88
2023-07-11T22:24:51.528Z,97537.47
2023-07-11T22:27:36.982Z,97525.75
2023-07-11T22:30:27.414Z,97480.94
2023-07-11T22:33:15.083Z,97456.25
2023-07-11T22:36:00.566Z,97479.66
2023-07-11T22:38:46.014Z,97492.97
2023-07-11T22:41:31.413Z,97489.13
2023-07-11T22:44:17.231Z,97494.47
2023-07-11T22:47:02.890Z,97504.03
2023-07-11T22:49:48.308Z,97498.84
2023-07-11T22:52:34.086Z,97507.72
2023-07-11T22:55:21.809Z,97509.31
2023-07-11T22:58:16.034Z,97512.47
2023-07-11T23:01:06.826Z,97521.41
2023-07-11T23:03:52.720Z,97528.28
2023-07-11T23:06:39.706Z,97526.84
2023-07-11T23:09:24.881Z,97534.03
2023-07-11T23:12:12.586Z,97503.50
2023-07-11T23:14:57.918Z,97550.91
2023-07-11T23:17:43.788Z,97496.22
2023-07-11T23:20:29.560Z,97556.78
2023-07-11T23:23:14.966Z,97564.59
2023-07-11T23:26:00.619Z,97577.66
2023-07-11T23:28:46.335Z,97597.53
2023-07-11T23:31:33.354Z,97593.81
2023-07-11T23:34:18.359Z,97598.25
2023-07-11T23:37:03.935Z,97604.09
2023-07-11T23:39:49.135Z,97567.16
2023-07-11T23:42:34.575Z,97601.47
2023-07-11T23:45:20.346Z,97572.91
2023-07-11T23:48:17.579Z,97592.91
2023-07-11T23:51:03.079Z,97608.81
2023-07-11T23:53:50.518Z,97606.94
2023-07-11T23:56:36.002Z,97599.69
2023-07-11T23:59:21.331Z,97599.03
